Data for 07/19/2013

Time Sea-Level Adjusted Pressure Absolute Pressure Temperature Relative Humidity Dew Point   
(mb) (inHg) (mb) (inHg) (C) (F) (%) (C) (F)
00:05 1023 30.21 852 25.16 17.5 63.6 37 2.8 37
00:10 1023 30.21 853 25.19 17.5 63.5 39 3.6 38.5
00:15 1023 30.21 853 25.19 17 62.6 40 3.4 38.1
00:20 1023 30.21 853 25.19 17 62.5 40 3.5 38.3
00:25 1023 30.21 853 25.19 17 62.6 39 3 37.4
00:30 1023 30.21 852 25.16 17.2 63 38 3.1 37.5
00:35 1023 30.21 853 25.19 17.1 62.8 38 2.9 37.3
00:40 1023 30.21 853 25.19 16.9 62.5 40 3.4 38.1
00:45 1023 30.21 853 25.19 16.9 62.3 38 2.5 36.5
00:50 1023 30.21 852 25.16 17.7 63.8 34 1.6 34.9
00:55 1023 30.21 852 25.16 18.7 65.7 30 0.9 33.7
01:00 1023 30.21 852 25.16 19.7 67.4 29 1.2 34.2
01:05 1023 30.21 852 25.16 20.1 68.2 28 1.3 34.3
01:10 1023 30.21 852 25.16 20.5 68.8 28 1.4 34.6
01:15 1023 30.21 852 25.16 20.5 68.8 28 1.5 34.6
01:20 1023 30.21 852 25.16 20.6 69.1 28 1.6 35
01:25 1023 30.21 852 25.16 20.5 68.9 28 1.7 35.1
01:30 1023 30.21 852 25.16 20.5 68.9 29 1.9 35.5
01:35 1023 30.21 852 25.16 20.4 68.7 29 2.1 35.7
01:40 1023 30.21 852 25.16 20.2 68.4 30 2.1 35.7
01:45 1023 30.21 852 25.16 20.4 68.6 29 2 35.5
01:50 1023 30.21 852 25.16 20.2 68.4 30 2.1 35.8
01:55 1023 30.21 852 25.16 20.1 68.2 30 2.3 36.1
02:00 1023 30.21 852 25.16 20 68 30 2.2 35.9
02:05 1023 30.21 852 25.16 20 68 31 2.3 36.1
02:10 1023 30.21 852 25.16 19.8 67.7 31 2.6 36.6
02:15 1023 30.21 852 25.16 19.6 67.2 31 2.3 36.1
02:20 1023 30.21 852 25.16 19.7 67.5 31 2.5 36.5
02:25 1023 30.21 852 25.16 19.6 67.2 32 2.6 36.7
02:30 1023 30.21 852 25.16 19.5 67 32 2.6 36.6
02:35 1023 30.21 852 25.16 19.5 67 32 2.7 36.9
02:40 1023 30.21 853 25.19 19.3 66.8 34 3.2 37.7
02:45 1023 30.21 853 25.19 19 66.1 34 3 37.4
02:50 1023 30.21 853 25.19 18.7 65.7 35 3.2 37.7
02:55 1023 30.21 853 25.19 17.7 63.9 41 4.6 40.3
03:00 1023 30.21 853 25.19 16.2 61.1 44 4.1 39.4
03:05 1023 30.21 853 25.19 15.6 60.1 46 4 39.2
03:10 1023 30.21 853 25.19 15.5 59.8 46 3.9 39
03:15 1023 30.21 853 25.19 15.4 59.7 45 3.7 38.7
03:20 1023 30.21 853 25.19 15.3 59.6 47 4.3 39.8
03:25 1023 30.21 853 25.19 15.1 59.2 46 3.8 38.9
03:30 1023 30.21 853 25.19 15.4 59.8 44 3.3 37.9
03:35 1023 30.21 852 25.16 15.5 60 45 3.8 38.8
03:40 1023 30.21 852 25.16 15.2 59.4 49 4.8 40.6
03:45 1023 30.21 852 25.16 15 58.9 48 4.1 39.4
03:50 1023 30.21 852 25.16 14.9 58.7 48 4 39.3
03:55 1023 30.21 852 25.16 14.8 58.6 48 4.1 39.4
04:00 1023 30.21 852 25.16 15 58.9 47 3.8 38.9
04:05 1023 30.21 852 25.16 15.2 59.3 49 4.6 40.4
04:10 1023 30.21 852 25.16 14.8 58.7 49 4.2 39.5
04:15 1023 30.21 852 25.16 15 59 47 4 39.1
04:20 1023 30.21 852 25.16 14.8 58.6 47 3.7 38.7
04:25 1023 30.21 852 25.16 15.1 59.2 46 3.7 38.7
04:30 1023 30.21 852 25.16 15.1 59.2 46 3.7 38.6
04:35 1023 30.21 852 25.16 15.2 59.3 46 3.7 38.6
04:40 1023 30.21 852 25.16 15 58.9 48 4 39.3
04:45 1023 30.21 852 25.16 14.8 58.7 47 3.7 38.6
04:50 1023 30.21 852 25.16 14.7 58.5 47 3.7 38.6
04:55 1023 30.21 852 25.16 14.3 57.8 48 3.6 38.4
05:00 1023 30.21 852 25.16 14.3 57.7 49 3.8 38.8
05:05 1023 30.21 853 25.19 14.3 57.7 48 3.5 38.2
05:10 1023 30.21 853 25.19 14.5 58.1 47 3.4 38.1
05:15 1023 30.21 853 25.19 14.6 58.2 47 3.6 38.5
05:20 1023 30.21 853 25.19 14.4 58 47 3.4 38.2
05:25 1023 30.21 853 25.19 14.8 58.6 45 3.2 37.7
05:30 1023 30.21 853 25.19 15.3 59.5 45 3.7 38.6
05:35 1023 30.21 853 25.19 15 59 47 3.9 39
05:40 1023 30.21 853 25.19 14.7 58.4 48 3.9 39.1
05:45 1023 30.21 853 25.19 14.6 58.2 48 3.7 38.7
05:50 1023 30.21 853 25.19 14.6 58.3 49 4.1 39.3
05:55 1024 30.24 853 25.19 14.7 58.4 48 4 39.1
06:00 1024 30.24 853 25.19 14.9 58.7 49 4.4 40
06:05 1024 30.24 853 25.19 14.9 58.8 49 4.4 39.9
06:10 1024 30.24 853 25.19 15 59 49 4.6 40.3
06:15 1024 30.24 853 25.19 15.1 59.2 50 4.9 40.7
06:20 1024 30.24 853 25.19 15.2 59.3 50 4.9 40.9
06:25 1024 30.24 853 25.19 15.4 59.7 50 5.2 41.3
06:30 1024 30.24 853 25.19 15.7 60.2 49 5.1 41.2
06:35 1024 30.24 853 25.19 16 60.8 48 5.1 41.2
06:40 1024 30.24 853 25.19 16.3 61.3 47 5 41
06:45 1024 30.24 853 25.19 16.7 62 48 5.6 42.1
06:50 1024 30.24 853 25.19 17 62.6 48 5.9 42.7
06:55 1024 30.24 853 25.19 17.2 63 46 5.5 41.9
07:00 1024 30.24 853 25.19 17.4 63.2 46 5.9 42.6
07:05 1024 30.24 853 25.19 17.8 64 46 6 42.8
07:10 1024 30.24 853 25.19 18.1 64.5 46 6.3 43.4
07:15 1024 30.24 853 25.19 18.2 64.7 46 6.4 43.5
07:20 1024 30.24 853 25.19 18.4 65.1 45 6.4 43.6
07:25 1024 30.24 853 25.19 18.7 65.7 44 6.4 43.5
07:30 1024 30.24 853 25.19 19 66.1 43 6.4 43.5
07:35 1024 30.24 853 25.19 19.1 66.3 44 6.6 43.9
07:40 1024 30.24 853 25.19 19.6 67.4 40 5.9 42.6
07:45 1024 30.24 853 25.19 19.8 67.7 41 6.2 43.2
07:50 1024 30.24 853 25.19 20 68.1 41 6.4 43.5
07:55 1023 30.21 853 25.19 20.1 68.2 40 6.1 42.9
08:00 1023 30.21 853 25.19 20.7 69.2 37 5.5 41.8
08:05 1023 30.21 853 25.19 21.1 70 36 5.8 42.5
08:10 1023 30.21 853 25.19 21.6 70.8 32 4.4 39.8
08:15 1023 30.21 852 25.16 22.1 71.9 33 5.1 41.2
08:20 1023 30.21 852 25.16 22.2 72 32 4.8 40.6
08:25 1023 30.21 852 25.16 21.9 71.3 31 4.3 39.7
08:30 1023 30.21 852 25.16 22.5 72.6 30 4.5 40.1
08:35 1023 30.21 852 25.16 22.9 73.3 27 3.4 38.1
08:40 1023 30.21 852 25.16 23.5 74.3 28 4.2 39.5
08:45 1023 30.21 852 25.16 24.2 75.5 26 3.6 38.6
08:50 1023 30.21 852 25.16 24.7 76.4 27 4.7 40.5
08:55 1023 30.21 852 25.16 24.2 75.5 27 4.2 39.6
09:00 1023 30.21 852 25.16 24.5 76.1 25 3.4 38.1
09:05 1023 30.21 852 25.16 24.9 76.9 25 3.7 38.6
09:10 1023 30.21 852 25.16 25.1 77.2 24 3.4 38.1
09:15 1023 30.21 852 25.16 25.2 77.4 25 4 39.2
09:20 1023 30.21 852 25.16 24.9 76.8 27 4.6 40.3
09:25 1023 30.21 852 25.16 25.2 77.4 28 5.5 41.9
09:30 1023 30.21 852 25.16 24.8 76.6 27 5 40.9
09:35 1023 30.21 852 25.16 24.4 75.8 28 4.8 40.7
09:40 1023 30.21 852 25.16 24.1 75.4 30 5.5 41.9
09:45 1023 30.21 852 25.16 24.8 76.7 26 4.5 40.1
09:50 1023 30.21 852 25.16 25.7 78.2 25 4.5 40.1
09:55 1023 30.21 852 25.16 26.1 79 24 4.3 39.8
10:00 1023 30.21 852 25.16 25.5 78 26 4.7 40.5
10:05 1023 30.21 852 25.16 26.1 78.9 25 4.8 40.7
10:10 1023 30.21 852 25.16 26.7 80 23 4.3 39.8
10:15 1022 30.18 852 25.16 27.1 80.7 23 4.4 39.9
10:20 1022 30.18 852 25.16 26.7 80.1 24 5.1 41.1
10:25 1022 30.18 852 25.16 27.3 81.1 22 4.2 39.5
10:30 1022 30.18 852 25.16 27.3 81.1 22 4.2 39.5
10:35 1022 30.18 852 25.16 27.3 81.2 22 4.1 39.4
10:40 1022 30.18 852 25.16 27.8 82 22 4.2 39.6
10:45 1022 30.18 852 25.16 27.7 81.8 20 3.3 38
10:50 1022 30.18 852 25.16 27.8 82.1 20 2.9 37.3
10:55 1022 30.18 852 25.16 28.1 82.5 21 3.7 38.6
11:00 1022 30.18 851 25.13 27.6 81.7 21 3.7 38.7
11:05 1022 30.18 851 25.13 27.3 81.2 23 4.6 40.3
11:10 1022 30.18 851 25.13 27.9 82.2 21 3.5 38.4
11:15 1022 30.18 851 25.13 28.2 82.7 22 4.5 40.1
11:20 1022 30.18 851 25.13 28.7 83.6 20 4 39.3
11:25 1022 30.18 851 25.13 28.7 83.7 21 4.9 40.8
11:30 1022 30.18 851 25.13 28.5 83.2 22 4.8 40.7
11:35 1022 30.18 851 25.13 28.7 83.6 22 5 41
11:40 1022 30.18 851 25.13 28.5 83.3 22 5.2 41.3
11:45 1022 30.18 851 25.13 28.7 83.7 22 5.4 41.7
11:50 1022 30.18 851 25.13 28.9 84 21 4.5 40.1
11:55 1022 30.18 851 25.13 28.9 84 19 3.1 37.5
12:00 1022 30.18 851 25.13 28.9 84.1 20 3.7 38.7
12:05 1022 30.18 851 25.13 29.1 84.3 19 3.3 37.9
12:10 1022 30.18 851 25.13 29.1 84.3 19 3.1 37.5
12:15 1022 30.18 851 25.13 29.4 84.8 11 -3.4 25.8
12:20 1022 30.18 851 25.13 29.5 85 12 -2.3 27.9
12:25 1022 30.18 851 25.13 29.7 85.4 13 -1.4 29.6
12:30 1022 30.18 851 25.13 29.6 85.3 13 -1.3 29.7
12:35 1022 30.18 851 25.13 29.7 85.5 14 -0.4 31.3
12:40 1022 30.18 851 25.13 29.3 84.8 14 -0.7 30.7
12:45 1022 30.18 851 25.13 29.3 84.8 13 -1.7 28.9
12:50 1022 30.18 851 25.13 29.1 84.4 13 -2 28.3
12:55 1022 30.18 851 25.13 29.4 84.9 14 -1 30.1
13:00 1022 30.18 851 25.13 30.1 86.1 13 -0.9 30.4
13:05 1022 30.18 851 25.13 29.4 84.9 14 -0.5 31.1
13:10 1021 30.15 851 25.13 29.8 85.7 13 -1.2 29.9
13:15 1021 30.15 851 25.13 29.8 85.7 13 -1.4 29.4
13:20 1021 30.15 851 25.13 30.5 86.9 13 -1.1 30.1
13:25 1021 30.15 850 25.1 30.5 86.9 12 -2.2 28.1
13:30 1021 30.15 850 25.1 30.1 86.1 12 -2 28.4
13:35 1021 30.15 850 25.1 30.4 86.8 12 -2.2 28.1
13:40 1021 30.15 850 25.1 30.5 86.8 11 -2.4 27.6
13:45 1021 30.15 850 25.1 31 87.8 12 -1.5 29.3
13:50 1021 30.15 850 25.1 30.8 87.4 11 -2.4 27.7
13:55 1021 30.15 850 25.1 30.7 87.2 11 -3.1 26.5
14:00 1021 30.15 850 25.1 30.8 87.4 11 -2.4 27.7
14:05 1021 30.15 850 25.1 31 87.8 13 -0.8 30.6
14:10 1021 30.15 850 25.1 31.3 88.4 11 -1.8 28.8
14:15 1021 30.15 850 25.1 31.3 88.4 11 -2.8 26.9
14:20 1021 30.15 850 25.1 30.8 87.4 12 -2 28.4
14:25 1021 30.15 850 25.1 31.1 87.9 11 -2.3 27.9
14:30 1021 30.15 850 25.1 31.1 88 11 -1.9 28.6
14:35 1021 30.15 850 25.1 30.4 86.7 11 -2.7 27.2
14:40 1020 30.12 850 25.1 30.5 86.9 11 -2.5 27.4
14:45 1020 30.12 850 25.1 30.3 86.5 12 -2.4 27.7
14:50 1020 30.12 850 25.1 30.4 86.6 12 -2.1 28.2
14:55 1020 30.12 850 25.1 30.6 87.1 11 -2.5 27.4
15:00 1020 30.12 850 25.1 30.9 87.5 11 -3 26.6
15:05 1020 30.12 850 25.1 31.1 88.1 11 -2.2 28
15:10 1020 30.12 849 25.07 30.9 87.5 11 -2.4 27.7
15:15 1020 30.12 849 25.07 31.1 88.1 11 -2.3 27.9
15:20 1020 30.12 849 25.07 30.6 87.2 11 -2.4 27.7
15:25 1020 30.12 849 25.07 30.1 86.2 11 -3.2 26.3
15:30 1020 30.12 849 25.07 29.9 85.7 12 -2 28.3
15:35 1020 30.12 849 25.07 30.5 86.9 11 -3.4 25.9
15:40 1020 30.12 849 25.07 31.1 88 12 -1.8 28.8
15:45 1020 30.12 849 25.07 31.3 88.3 12 -1.2 29.8
15:50 1020 30.12 849 25.07 31.3 88.4 11 -2.1 28.3
15:55 1020 30.12 849 25.07 30.1 86.1 12 -1.8 28.7
16:00 1020 30.12 849 25.07 30.8 87.4 11 -2.4 27.7
16:05 1020 30.12 849 25.07 31.5 88.6 10 -3.1 26.5
16:10 1020 30.12 849 25.07 31.4 88.5 12 -1.2 29.8
16:15 1020 30.12 849 25.07 31.5 88.7 10 -3.1 26.4
16:20 1020 30.12 849 25.07 31 87.8 11 -2.2 28
16:25 1020 30.12 849 25.07 31.2 88.2 10 -3.2 26.2
16:30 1020 30.12 849 25.07 30.4 86.7 11 -3.5 25.7
16:35 1020 30.12 849 25.07 30.8 87.4 10 -3.7 25.4
16:40 1020 30.12 849 25.07 31.1 87.9 10 -3.1 26.3
16:45 1020 30.12 849 25.07 31.2 88.2 10 -3.4 25.9
16:50 1020 30.12 849 25.07 30.8 87.5 11 -2.2 28.1
16:55 1019 30.09 849 25.07 31.5 88.6 11 -2.5 27.5
17:00 1019 30.09 849 25.07 31.3 88.4 11 -2.7 27.1
17:05 1019 30.09 849 25.07 30.8 87.4 11 -2.5 27.6
17:10 1019 30.09 849 25.07 31.3 88.3 11 -2.2 28
17:15 1019 30.09 849 25.07 31.1 87.9 10 -3.2 26.3
17:20 1019 30.09 848 25.04 31.2 88.2 11 -2.9 26.8
17:25 1019 30.09 848 25.04 31.6 88.8 11 -1.9 28.5
17:30 1019 30.09 848 25.04 31.2 88.2 11 -2.2 28
17:35 1019 30.09 848 25.04 30.8 87.5 11 -2.3 27.9
17:40 1019 30.09 848 25.04 30.8 87.4 11 -2.8 26.9
17:45 1019 30.09 848 25.04 30.9 87.7 11 -2.7 27.2
17:50 1019 30.09 848 25.04 30 85.9 11 -2.8 27
17:55 1019 30.09 848 25.04 29.7 85.4 12 -2.7 27.1
18:00 1019 30.09 848 25.04 30 86 12 -2.7 27.2
18:05 1019 30.09 848 25.04 29.7 85.5 12 -2.8 27
18:10 1019 30.09 848 25.04 29.4 84.8 12 -2.5 27.4
18:15 1019 30.09 848 25.04 29.7 85.4 12 -2.2 28
18:20 1019 30.09 848 25.04 29.5 85 13 -1.6 29.1
18:25 1019 30.09 848 25.04 29.2 84.5 13 -2 28.4
18:30 1019 30.09 848 25.04 28.8 83.8 13 -2.2 28.1
18:35 1019 30.09 848 25.04 28.7 83.6 13 -2.6 27.3
18:40 1019 30.09 848 25.04 28.6 83.4 13 -2.2 28
18:45 1019 30.09 848 25.04 28.5 83.4 14 -1.6 29
18:50 1019 30.09 848 25.04 28.4 83.1 14 -1.3 29.6
18:55 1019 30.09 848 25.04 28.2 82.7 14 -1.3 29.7
19:00 1019 30.09 848 25.04 28 82.4 14 -1.4 29.5
19:05 1019 30.09 849 25.07 27.9 82.2 14 -1.3 29.6
19:10 1019 30.09 849 25.07 27.7 81.9 14 -1.6 29.1
19:15 1019 30.09 849 25.07 27.6 81.7 14 -1.7 28.9
19:20 1019 30.09 849 25.07 27.5 81.4 15 -1.4 29.5
19:25 1019 30.09 849 25.07 27.3 81.1 14 -1.9 28.6
19:30 1019 30.09 849 25.07 27.1 80.7 15 -1.9 28.6
19:35 1019 30.09 849 25.07 26.8 80.3 15 -1.9 28.6
19:40 1019 30.09 849 25.07 26.6 79.8 15 -1.6 29.1
19:45 1019 30.09 849 25.07 26.3 79.3 16 -1.6 29.1
19:50 1019 30.09 849 25.07 26.1 78.9 16 -1.8 28.8
19:55 1020 30.12 849 25.07 25.8 78.5 17 -0.9 30.3
20:00 1020 30.12 849 25.07 25.6 78 17 -0.7 30.7
20:05 1020 30.12 849 25.07 25.2 77.3 22 2.3 36.2
20:10 1020 30.12 849 25.07 24.7 76.4 22 1.7 35
20:15 1020 30.12 849 25.07 24.4 76 24 3 37.4
20:20 1020 30.12 849 25.07 24.1 75.3 27 3.9 39
20:25 1020 30.12 849 25.07 23.6 74.5 24 2.1 35.8
20:30 1020 30.12 849 25.07 23.8 74.9 26 3.2 37.8
20:35 1020 30.12 849 25.07 23.3 73.9 28 4.1 39.5
20:40 1020 30.12 849 25.07 22.2 71.9 29 3.5 38.3
20:45 1020 30.12 849 25.07 22 71.5 29 3.4 38.1
20:50 1020 30.12 849 25.07 21.8 71.2 31 4.1 39.4
20:55 1020 30.12 849 25.07 21.2 70.1 33 4.5 40.1
21:00 1020 30.12 850 25.1 20.6 69.2 33 3.8 38.8
21:05 1020 30.12 850 25.1 20.5 68.8 32 3.3 37.9
21:10 1020 30.12 850 25.1 20.2 68.3 34 3.8 38.8
21:15 1021 30.15 850 25.1 19.9 67.9 32 3.1 37.6
21:20 1021 30.15 850 25.1 20 67.9 33 3.4 38.1
21:25 1021 30.15 850 25.1 19.7 67.5 36 4.2 39.6
21:30 1021 30.15 850 25.1 19.4 66.9 36 4 39.1
21:35 1021 30.15 850 25.1 19.1 66.4 35 3.5 38.3
21:40 1021 30.15 850 25.1 19 66.2 36 3.7 38.6
21:45 1021 30.15 850 25.1 18.9 66 35 3.2 37.7
21:50 1021 30.15 850 25.1 18.7 65.7 37 3.9 39.1
21:55 1021 30.15 850 25.1 18.5 65.3 36 3.1 37.7
22:00 1020 30.12 850 25.1 18.4 65.1 37 3.6 38.5
22:05 1020 30.12 850 25.1 18.2 64.8 36 3.2 37.7
22:10 1021 30.15 850 25.1 18.2 64.7 37 3.3 37.9
22:15 1021 30.15 850 25.1 18.1 64.5 36 2.9 37.3
22:20 1021 30.15 850 25.1 17.6 63.7 38 3.2 37.7
22:25 1021 30.15 850 25.1 17.3 63.2 38 2.9 37.2
22:30 1021 30.15 850 25.1 17.2 63 38 3 37.4
22:35 1021 30.15 850 25.1 17.1 62.8 38 2.6 36.8
22:40 1021 30.15 850 25.1 17.3 63.1 36 2.1 35.8
22:45 1021 30.15 850 25.1 17.5 63.5 35 1.9 35.4
22:50 1021 30.15 850 25.1 17.7 63.9 33 1.6 34.8
22:55 1021 30.15 850 25.1 17.7 63.9 34 1.7 35.1
23:00 1021 30.15 850 25.1 17.5 63.4 34 1.7 35
23:05 1021 30.15 850 25.1 17.5 63.6 33 1.4 34.5
23:10 1021 30.15 850 25.1 17.7 63.8 33 1.2 34.2
23:15 1021 30.15 850 25.1 17.7 63.9 31 0.4 32.7
23:20 1021 30.15 850 25.1 18 64.4 31 0.8 33.5
23:25 1021 30.15 850 25.1 18 64.4 31 0.8 33.5
23:30 1021 30.15 850 25.1 17.9 64.2 31 0.6 33
23:35 1021 30.15 850 25.1 17.6 63.7 31 0.3 32.6
23:40 1021 30.15 850 25.1 17.8 64.1 29 -0.1 31.8
23:45 1021 30.15 850 25.1 17.8 64.1 30 0.3 32.6
23:50 1021 30.15 850 25.1 17.6 63.6 31 0.3 32.5
23:55 1021 30.15 850 25.1 17.1 62.7 31 0.1 32.1
24:00 1021 30.15 850 25.1 17 62.5 32 0.2 32.3